Time;durP1;ratioP1;P1;durP2;ratioP2;P2;SDS_P1;SDS_P2;PMS_P1;PMS_P2;Temp;Humidity;BMP_temperature;BMP_pressure;BME280_temperature;BME280_humidity;BME280_pressure;Samples;Min_cycle;Max_cycle;Signal;HPM_P1;HPM_P2
2021/11/21 00:01:37;;;;;;;21.02;9.45;;;;;;;;;;5100662;28;20020;-70
2021/11/21 00:04:03;;;;;;;18.10;8.73;;;;;;;;;;5100612;28;20107;-70
2021/11/21 00:06:29;;;;;;;13.18;7.70;;;;;;;;;;5100492;28;20122;-70
2021/11/21 00:08:55;;;;;;;18.60;8.43;;;;;;;;;;5082403;28;20024;-69
2021/11/21 00:11:22;;;;;;;17.90;7.82;;;;;;;;;;5100493;28;20023;-70
2021/11/21 00:13:50;;;;;;;16.40;7.53;;;;;;;;;;5100411;28;20095;-69
2021/11/21 00:16:16;;;;;;;12.30;6.78;;;;;;;;;;5082390;28;20020;-69
2021/11/21 00:18:42;;;;;;;13.82;5.28;;;;;;;;;;5100344;28;20020;-69
2021/11/21 00:21:08;;;;;;;21.50;8.57;;;;;;;;;;5099784;28;20027;-70
2021/11/21 00:23:34;;;;;;;16.13;8.20;;;;;;;;;;5100245;28;20024;-69
2021/11/21 00:26:00;;;;;;;19.20;8.52;;;;;;;;;;5100121;28;20043;-69
2021/11/21 00:28:26;;;;;;;14.00;6.50;;;;;;;;;;5082159;28;20356;-69
2021/11/21 00:30:52;;;;;;;14.73;6.90;;;;;;;;;;5099711;28;20023;-69
2021/11/21 00:33:18;;;;;;;13.13;6.30;;;;;;;;;;5100087;28;20065;-69
2021/11/21 00:35:44;;;;;;;18.02;5.65;;;;;;;;;;5081853;28;20023;-69
2021/11/21 00:38:10;;;;;;;15.63;7.18;;;;;;;;;;5099996;28;20024;-69
2021/11/21 00:40:36;;;;;;;16.80;7.38;;;;;;;;;;5099922;28;20073;-69
2021/11/21 00:43:02;;;;;;;13.60;7.10;;;;;;;;;;5099570;28;20024;-69
2021/11/21 00:45:29;;;;;;;18.60;7.88;;;;;;;;;;5099791;28;20020;-69
2021/11/21 00:47:56;;;;;;;14.25;6.80;;;;;;;;;;5099242;28;20019;-69
2021/11/21 00:50:25;;;;;;;14.68;7.70;;;;;;;;;;5099419;28;20061;-69
2021/11/21 00:52:58;;;;;;;15.10;7.15;;;;;;;;;;5099666;28;20020;-69
2021/11/21 00:55:33;;;;;;;15.73;7.97;;;;;;;;;;5099651;28;20069;-69
2021/11/21 00:57:59;;;;;;;11.52;5.93;;;;;;;;;;5099025;28;20012;-70
2021/11/21 01:00:25;;;;;;;12.07;5.38;;;;;;;;;;5099607;28;20448;-69
2021/11/21 01:02:52;;;;;;;13.57;6.72;;;;;;;;;;5099453;28;20023;-69
2021/11/21 01:05:18;;;;;;;14.32;5.95;;;;;;;;;;5099323;28;20030;-69
2021/11/21 01:07:43;;;;;;;13.60;7.00;;;;;;;;;;5099058;28;20036;-69
2021/11/21 01:10:12;;;;;;;15.38;6.03;;;;;;;;;;5099119;28;20437;-69
2021/11/21 01:12:40;;;;;;;16.30;6.95;;;;;;;;;;5098878;28;20487;-70
2021/11/21 01:15:07;;;;;;;12.40;5.65;;;;;;;;;;5099273;28;20020;-69
2021/11/21 01:17:33;;;;;;;11.57;5.22;;;;;;;;;;5099477;28;20181;-70
2021/11/21 01:20:02;;;;;;;11.23;5.78;;;;;;;;;;5098677;28;20039;-70
2021/11/21 01:22:29;;;;;;;10.60;5.03;;;;;;;;;;5099117;28;20020;-70
2021/11/21 01:24:55;;;;;;;16.70;6.55;;;;;;;;;;5099069;28;20103;-70
2021/11/21 01:27:21;;;;;;;16.45;6.22;;;;;;;;;;5098419;28;20032;-70
2021/11/21 01:29:47;;;;;;;14.18;8.00;;;;;;;;;;5098456;28;20016;-70
2021/11/21 01:32:13;;;;;;;16.13;7.45;;;;;;;;;;5098917;28;20341;-70
2021/11/21 01:34:39;;;;;;;19.40;8.50;;;;;;;;;;5080291;28;20421;-70
2021/11/21 01:37:05;;;;;;;21.35;9.93;;;;;;;;;;5098465;28;20133;-70
2021/11/21 01:39:31;;;;;;;20.08;9.80;;;;;;;;;;5098781;28;20444;-70
2021/11/21 01:41:57;;;;;;;22.55;11.32;;;;;;;;;;5098738;28;20505;-70
2021/11/21 01:44:23;;;;;;;35.13;12.73;;;;;;;;;;5098637;28;20032;-70
2021/11/21 01:46:51;;;;;;;21.85;11.88;;;;;;;;;;5097979;28;20062;-70
2021/11/21 01:49:18;;;;;;;24.10;11.15;;;;;;;;;;5098568;28;20482;-70
2021/11/21 01:51:45;;;;;;;23.60;9.65;;;;;;;;;;5098543;28;20031;-70
2021/11/21 01:54:11;;;;;;;17.55;10.60;;;;;;;;;;5098496;28;20020;-70
2021/11/21 01:56:38;;;;;;;22.58;10.88;;;;;;;;;;5098439;28;20020;-70
2021/11/21 01:59:05;;;;;;;21.40;10.88;;;;;;;;;;5097849;28;20018;-70
2021/11/21 02:01:31;;;;;;;27.27;12.07;;;;;;;;;;5098376;28;20110;-70
2021/11/21 02:03:57;;;;;;;19.70;9.68;;;;;;;;;;5098249;28;20118;-70
2021/11/21 02:06:23;;;;;;;25.95;11.90;;;;;;;;;;5097476;28;20477;-70
2021/11/21 02:08:53;;;;;;;25.95;12.73;;;;;;;;;;5098050;28;20023;-70
2021/11/21 02:11:22;;;;;;;22.35;10.95;;;;;;;;;;5098341;28;20048;-70
2021/11/21 02:13:49;;;;;;;30.42;13.52;;;;;;;;;;5097960;28;20375;-70
2021/11/21 02:16:16;;;;;;;30.35;11.18;;;;;;;;;;5097469;28;20020;-70
2021/11/21 02:18:45;;;;;;;24.35;11.20;;;;;;;;;;5098022;28;20020;-70
2021/11/21 02:21:12;;;;;;;22.15;11.18;;;;;;;;;;5097989;28;20157;-70
2021/11/21 02:23:38;;;;;;;27.95;13.27;;;;;;;;;;5097961;28;20034;-70
2021/11/21 02:26:04;;;;;;;26.75;12.43;;;;;;;;;;5097756;28;20031;-70
2021/11/21 02:28:31;;;;;;;35.55;13.00;;;;;;;;;;5097581;28;20359;-70
2021/11/21 02:30:57;;;;;;;38.08;13.63;;;;;;;;;;5097864;28;20043;-70
2021/11/21 02:33:23;;;;;;;49.13;15.10;;;;;;;;;;5097841;28;20433;-70
2021/11/21 02:35:50;;;;;;;33.35;14.38;;;;;;;;;;5097715;28;20505;-70
2021/11/21 02:38:17;;;;;;;37.13;15.48;;;;;;;;;;5097686;28;20020;-70
2021/11/21 02:40:44;;;;;;;39.55;16.38;;;;;;;;;;5097325;28;20399;-70
2021/11/21 02:43:10;;;;;;;41.97;18.13;;;;;;;;;;5097548;28;20019;-70
2021/11/21 02:45:36;;;;;;;52.53;25.58;;;;;;;;;;5097294;28;20366;-70
2021/11/21 02:48:02;;;;;;;50.42;23.90;;;;;;;;;;5097561;28;20111;-70
2021/11/21 02:50:29;;;;;;;47.63;23.35;;;;;;;;;;5097573;28;20047;-70
2021/11/21 02:52:57;;;;;;;58.17;28.10;;;;;;;;;;5097194;28;20385;-70
2021/11/21 02:55:25;;;;;;;56.38;27.70;;;;;;;;;;5096790;28;20012;-70
2021/11/21 02:57:51;;;;;;;54.95;26.20;;;;;;;;;;5097300;28;20023;-69
2021/11/21 03:00:17;;;;;;;55.53;25.33;;;;;;;;;;5097422;28;20024;-69
2021/11/21 03:02:44;;;;;;;53.13;21.20;;;;;;;;;;5096833;28;20031;-69
2021/11/21 03:05:11;;;;;;;36.67;16.98;;;;;;;;;;5097347;28;20340;-69
2021/11/21 03:07:37;;;;;;;32.33;16.58;;;;;;;;;;5097286;28;20035;-69
2021/11/21 03:10:04;;;;;;;29.27;14.02;;;;;;;;;;5097086;28;20337;-69
2021/11/21 03:12:30;;;;;;;25.73;13.82;;;;;;;;;;5097332;28;20027;-69
2021/11/21 03:14:56;;;;;;;23.77;12.27;;;;;;;;;;5097246;28;20023;-69
2021/11/21 03:17:22;;;;;;;36.50;13.38;;;;;;;;;;5098250;28;20020;-70
2021/11/21 03:19:48;;;;;;;28.33;12.88;;;;;;;;;;5083452;28;20028;-70
2021/11/21 03:22:14;;;;;;;24.08;11.93;;;;;;;;;;5083158;28;20310;-70
2021/11/21 03:24:40;;;;;;;32.17;12.55;;;;;;;;;;5101354;28;20073;-70
2021/11/21 03:27:07;;;;;;;31.08;11.60;;;;;;;;;;5101276;28;20032;-70
2021/11/21 03:29:33;;;;;;;33.88;13.27;;;;;;;;;;5101299;28;20039;-69
2021/11/21 03:31:59;;;;;;;33.88;13.93;;;;;;;;;;5083209;28;20044;-70
2021/11/21 03:34:26;;;;;;;23.27;11.25;;;;;;;;;;5100712;28;20011;-69
2021/11/21 03:36:52;;;;;;;18.67;8.40;;;;;;;;;;5101215;28;20115;-70
2021/11/21 03:39:18;;;;;;;19.65;10.82;;;;;;;;;;5101144;28;20047;-69
2021/11/21 03:41:44;;;;;;;19.15;9.02;;;;;;;;;;5101061;28;20026;-70
2021/11/21 03:44:10;;;;;;;28.17;9.68;;;;;;;;;;5101011;28;20028;-70
2021/11/21 03:46:37;;;;;;;16.65;9.43;;;;;;;;;;5100891;28;20024;-70
2021/11/21 03:49:03;;;;;;;24.55;9.30;;;;;;;;;;5082949;28;20020;-69
2021/11/21 03:51:30;;;;;;;28.67;10.98;;;;;;;;;;5100905;28;20031;-70
2021/11/21 03:53:56;;;;;;;31.92;12.50;;;;;;;;;;5100752;28;20012;-69
2021/11/21 03:56:23;;;;;;;26.83;13.10;;;;;;;;;;5100301;28;20024;-70
2021/11/21 03:58:49;;;;;;;27.55;14.30;;;;;;;;;;5100709;28;20028;-69
2021/11/21 04:01:15;;;;;;;41.15;14.25;;;;;;;;;;5100751;28;20107;-69
2021/11/21 04:03:42;;;;;;;32.72;15.90;;;;;;;;;;5100598;28;20048;-69
2021/11/21 04:06:09;;;;;;;33.97;16.23;;;;;;;;;;5100360;28;20028;-69
2021/11/21 04:08:35;;;;;;;37.67;17.15;;;;;;;;;;5100635;28;20414;-70
2021/11/21 04:11:01;;;;;;;32.05;13.05;;;;;;;;;;5082537;28;20417;-69
2021/11/21 04:13:27;;;;;;;26.77;13.07;;;;;;;;;;5100414;28;20027;-69
2021/11/21 04:15:53;;;;;;;26.23;11.23;;;;;;;;;;5099810;28;20027;-69
2021/11/21 04:18:19;;;;;;;21.83;10.18;;;;;;;;;;5099760;28;20027;-70
2021/11/21 04:20:45;;;;;;;24.98;11.20;;;;;;;;;;5100300;28;20024;-70
2021/11/21 04:23:11;;;;;;;26.33;10.25;;;;;;;;;;5100318;28;20414;-70
2021/11/21 04:25:38;;;;;;;23.10;11.75;;;;;;;;;;5100200;28;20157;-70
2021/11/21 04:28:09;;;;;;;21.80;11.52;;;;;;;;;;5099714;28;20094;-69
2021/11/21 04:30:35;;;;;;;26.23;11.82;;;;;;;;;;5099939;28;20432;-69
2021/11/21 04:33:03;;;;;;;26.00;12.48;;;;;;;;;;5100119;28;20024;-70
2021/11/21 04:35:29;;;;;;;27.55;12.00;;;;;;;;;;5100061;28;20043;-70
2021/11/21 04:37:55;;;;;;;26.33;12.20;;;;;;;;;;5081991;28;20026;-69
2021/11/21 04:40:21;;;;;;;21.58;10.95;;;;;;;;;;5099954;28;20027;-70
2021/11/21 04:42:47;;;;;;;26.08;12.57;;;;;;;;;;5081987;28;20027;-70
2021/11/21 04:45:14;;;;;;;22.50;10.70;;;;;;;;;;5099914;28;20038;-69
2021/11/21 04:47:40;;;;;;;31.90;14.35;;;;;;;;;;5099357;28;20424;-71
2021/11/21 04:50:06;;;;;;;22.23;13.77;;;;;;;;;;5099622;28;20410;-70
2021/11/21 04:52:32;;;;;;;29.58;11.35;;;;;;;;;;5099718;28;20073;-70
2021/11/21 04:54:58;;;;;;;19.77;10.27;;;;;;;;;;5099704;28;20016;-69
2021/11/21 04:57:24;;;;;;;24.02;11.02;;;;;;;;;;5099674;28;20026;-69
2021/11/21 04:59:50;;;;;;;24.23;11.52;;;;;;;;;;5099588;28;20020;-70
2021/11/21 05:02:16;;;;;;;32.05;11.82;;;;;;;;;;5098936;28;20046;-69
2021/11/21 05:04:42;;;;;;;28.88;11.32;;;;;;;;;;5081499;28;20076;-69
2021/11/21 05:07:08;;;;;;;27.05;10.77;;;;;;;;;;5099931;28;20084;-70
2021/11/21 05:09:34;;;;;;;21.98;9.68;;;;;;;;;;5099392;28;20046;-69
2021/11/21 05:12:00;;;;;;;24.92;10.05;;;;;;;;;;5098830;28;20020;-69
2021/11/21 05:14:26;;;;;;;37.33;10.82;;;;;;;;;;5099276;28;20036;-69
2021/11/21 05:16:52;;;;;;;32.53;9.60;;;;;;;;;;5099264;28;20031;-69
2021/11/21 05:19:18;;;;;;;26.58;9.43;;;;;;;;;;5099233;28;20020;-69
2021/11/21 05:21:44;;;;;;;27.17;10.77;;;;;;;;;;5099058;28;20027;-69
2021/11/21 05:24:10;;;;;;;30.60;12.75;;;;;;;;;;5099102;28;20016;-70
2021/11/21 05:26:36;;;;;;;25.17;11.50;;;;;;;;;;5099044;28;20385;-69
2021/11/21 05:29:02;;;;;;;26.65;9.20;;;;;;;;;;5099065;28;20422;-69
2021/11/21 05:31:29;;;;;;;31.95;9.77;;;;;;;;;;5098318;28;20027;-69
2021/11/21 05:33:54;;;;;;;29.70;11.80;;;;;;;;;;5098213;28;20020;-69
2021/11/21 05:36:20;;;;;;;21.48;10.32;;;;;;;;;;5098749;28;20012;-69
2021/11/21 05:38:47;;;;;;;24.25;9.18;;;;;;;;;;5080502;28;20024;-69
2021/11/21 05:41:13;;;;;;;14.95;7.65;;;;;;;;;;5097889;28;20108;-69
2021/11/21 05:43:39;;;;;;;25.70;9.27;;;;;;;;;;5098911;28;20043;-69
2021/11/21 05:46:05;;;;;;;24.58;9.75;;;;;;;;;;5098431;28;20413;-69
2021/11/21 05:48:31;;;;;;;23.13;9.80;;;;;;;;;;5098596;28;20149;-69
2021/11/21 05:50:57;;;;;;;18.73;9.50;;;;;;;;;;5098417;28;20030;-69
2021/11/21 05:53:23;;;;;;;26.23;9.50;;;;;;;;;;5098395;28;20028;-70
2021/11/21 05:55:49;;;;;;;17.85;9.02;;;;;;;;;;5098035;28;20326;-69
2021/11/21 05:58:18;;;;;;;23.52;10.30;;;;;;;;;;5080406;28;20415;-69
2021/11/21 06:00:44;;;;;;;18.25;8.40;;;;;;;;;;5097796;28;20020;-70
2021/11/21 06:03:10;;;;;;;15.80;8.13;;;;;;;;;;5098160;28;20024;-69
2021/11/21 06:05:36;;;;;;;15.60;7.90;;;;;;;;;;5098156;28;20023;-69
2021/11/21 06:08:06;;;;;;;17.13;8.50;;;;;;;;;;5098077;28;20027;-70
2021/11/21 06:10:35;;;;;;;23.25;8.38;;;;;;;;;;5079623;28;20341;-69
2021/11/21 06:13:01;;;;;;;19.88;7.13;;;;;;;;;;5080320;28;20026;-70
2021/11/21 06:15:27;;;;;;;16.33;7.10;;;;;;;;;;5097819;28;20103;-69
2021/11/21 06:17:53;;;;;;;14.13;6.00;;;;;;;;;;5098071;28;20069;-69
2021/11/21 06:20:19;;;;;;;14.45;5.82;;;;;;;;;;5098095;28;20020;-69
2021/11/21 06:22:45;;;;;;;9.35;4.28;;;;;;;;;;5097941;28;20024;-70
2021/11/21 06:25:12;;;;;;;13.95;5.38;;;;;;;;;;5097510;28;20127;-70
2021/11/21 06:27:41;;;;;;;10.90;5.13;;;;;;;;;;5097713;28;20062;-70
2021/11/21 06:30:07;;;;;;;17.38;5.50;;;;;;;;;;5097786;28;20016;-70
2021/11/21 06:32:33;;;;;;;15.00;4.97;;;;;;;;;;5097884;28;20024;-69
2021/11/21 06:34:59;;;;;;;10.40;5.38;;;;;;;;;;5097738;28;20039;-70
2021/11/21 06:37:25;;;;;;;12.88;6.55;;;;;;;;;;5097736;28;20031;-69
2021/11/21 06:39:51;;;;;;;14.20;5.95;;;;;;;;;;5097712;28;20015;-69
2021/11/21 06:42:17;;;;;;;14.18;6.45;;;;;;;;;;5097581;28;20024;-70
2021/11/21 06:44:43;;;;;;;20.70;7.85;;;;;;;;;;5097617;28;20027;-69
2021/11/21 06:47:09;;;;;;;14.50;6.88;;;;;;;;;;5097642;28;20039;-69
2021/11/21 06:49:35;;;;;;;16.95;7.05;;;;;;;;;;5097239;28;20450;-70
2021/11/21 06:52:01;;;;;;;19.17;7.18;;;;;;;;;;5097429;28;20150;-70
2021/11/21 06:54:27;;;;;;;20.17;8.60;;;;;;;;;;5097482;28;20027;-69
2021/11/21 06:56:53;;;;;;;18.40;7.82;;;;;;;;;;5097460;28;20027;-68
2021/11/21 06:59:19;;;;;;;16.05;7.13;;;;;;;;;;5097057;28;20298;-69
2021/11/21 07:01:45;;;;;;;24.00;8.30;;;;;;;;;;5079426;28;20028;-70
2021/11/21 07:04:11;;;;;;;24.05;7.65;;;;;;;;;;5097387;28;20020;-70
2021/11/21 07:06:39;;;;;;;17.23;7.35;;;;;;;;;;5097202;28;20040;-70
2021/11/21 07:09:07;;;;;;;20.92;8.13;;;;;;;;;;5097221;28;20024;-71
2021/11/21 07:11:33;;;;;;;21.42;7.63;;;;;;;;;;5097273;28;20015;-70
2021/11/21 07:13:59;;;;;;;16.50;8.13;;;;;;;;;;5097297;28;20023;-70
2021/11/21 07:16:25;;;;;;;11.27;4.95;;;;;;;;;;5097295;28;20379;-70
2021/11/21 07:18:51;;;;;;;15.27;5.50;;;;;;;;;;5096624;28;20017;-71
2021/11/21 07:21:17;;;;;;;10.68;5.65;;;;;;;;;;5079194;28;20035;-70
2021/11/21 07:23:43;;;;;;;14.15;6.90;;;;;;;;;;5096579;28;20012;-70
2021/11/21 07:26:09;;;;;;;13.05;4.78;;;;;;;;;;5096749;28;20067;-70
2021/11/21 07:28:35;;;;;;;15.60;5.50;;;;;;;;;;5096554;28;20058;-71
2021/11/21 07:31:01;;;;;;;16.27;5.03;;;;;;;;;;5078931;28;20119;-70
2021/11/21 07:33:27;;;;;;;18.23;5.55;;;;;;;;;;5096995;28;20016;-71
2021/11/21 07:35:54;;;;;;;11.50;5.38;;;;;;;;;;5097055;28;20023;-70
2021/11/21 07:38:20;;;;;;;14.07;6.55;;;;;;;;;;5078849;28;20028;-71
2021/11/21 07:40:46;;;;;;;13.60;5.82;;;;;;;;;;5096431;28;20040;-70
2021/11/21 07:43:13;;;;;;;14.85;5.10;;;;;;;;;;5096441;28;20105;-71
2021/11/21 07:45:39;;;;;;;16.92;5.95;;;;;;;;;;5096849;28;20026;-71
2021/11/21 07:48:05;;;;;;;13.02;5.53;;;;;;;;;;5096913;28;20049;-70
2021/11/21 07:50:31;;;;;;;12.82;5.28;;;;;;;;;;5096426;28;20386;-70
2021/11/21 07:52:57;;;;;;;19.27;4.68;;;;;;;;;;5096819;28;20031;-71
2021/11/21 07:55:23;;;;;;;13.15;5.22;;;;;;;;;;5096325;28;20430;-71
2021/11/21 07:57:49;;;;;;;12.70;4.72;;;;;;;;;;5096912;28;20030;-71
2021/11/21 08:00:15;;;;;;;13.35;4.00;;;;;;;;;;5096811;28;20019;-71
2021/11/21 08:02:42;;;;;;;13.10;4.85;;;;;;;;;;5096860;28;20042;-71
2021/11/21 08:05:08;;;;;;;15.90;5.55;;;;;;;;;;5100512;28;20036;-70
2021/11/21 08:07:34;;;;;;;11.48;4.22;;;;;;;;;;5099825;28;20044;-70
2021/11/21 08:10:00;;;;;;;10.18;5.07;;;;;;;;;;5100422;28;20031;-70
2021/11/21 08:12:26;;;;;;;8.57;4.15;;;;;;;;;;5082298;28;20024;-70
2021/11/21 08:14:52;;;;;;;9.05;4.63;;;;;;;;;;5100383;28;20325;-70
2021/11/21 08:17:18;;;;;;;11.25;3.40;;;;;;;;;;5100447;28;20035;-71
2021/11/21 08:19:44;;;;;;;12.15;4.32;;;;;;;;;;5100345;28;20146;-71
2021/11/21 08:22:10;;;;;;;14.25;4.63;;;;;;;;;;5099917;28;20024;-70
2021/11/21 08:24:36;;;;;;;9.10;4.88;;;;;;;;;;5099711;28;20027;-70
2021/11/21 08:27:03;;;;;;;14.80;4.70;;;;;;;;;;5100093;28;20023;-70
2021/11/21 08:29:29;;;;;;;11.40;4.68;;;;;;;;;;5100161;28;20019;-70
2021/11/21 08:31:56;;;;;;;9.50;4.53;;;;;;;;;;5100118;28;20034;-70
2021/11/21 08:34:22;;;;;;;8.13;3.78;;;;;;;;;;5100083;28;20024;-70
2021/11/21 08:36:49;;;;;;;11.77;4.53;;;;;;;;;;5099686;28;20016;-71
2021/11/21 08:39:16;;;;;;;14.25;6.50;;;;;;;;;;5081959;28;20368;-70
2021/11/21 08:41:42;;;;;;;17.30;5.88;;;;;;;;;;5099372;28;20030;-70
2021/11/21 08:44:08;;;;;;;13.07;5.28;;;;;;;;;;5099390;28;20020;-70
2021/11/21 08:46:35;;;;;;;20.17;6.78;;;;;;;;;;5099340;28;20314;-70
2021/11/21 08:49:01;;;;;;;9.18;3.88;;;;;;;;;;5099808;28;20016;-70
2021/11/21 08:51:27;;;;;;;15.35;6.43;;;;;;;;;;5100032;28;20016;-70
2021/11/21 08:53:52;;;;;;;10.23;4.70;;;;;;;;;;5099709;28;20094;-70
2021/11/21 08:56:19;;;;;;;10.95;5.10;;;;;;;;;;5099638;28;20024;-70
2021/11/21 08:58:45;;;;;;;11.82;4.45;;;;;;;;;;5081344;28;20072;-70
2021/11/21 09:01:11;;;;;;;12.60;6.00;;;;;;;;;;5081620;28;20103;-70
2021/11/21 09:03:38;;;;;;;10.93;4.78;;;;;;;;;;5099520;28;20020;-70
2021/11/21 09:06:04;;;;;;;10.27;3.97;;;;;;;;;;5081255;28;20043;-70
2021/11/21 09:08:30;;;;;;;10.43;4.63;;;;;;;;;;5099277;28;20303;-70
2021/11/21 09:10:56;;;;;;;14.32;6.07;;;;;;;;;;5099297;28;20103;-70
2021/11/21 09:13:22;;;;;;;10.18;4.82;;;;;;;;;;5099387;28;20372;-70
2021/11/21 09:15:48;;;;;;;11.18;4.90;;;;;;;;;;5097360;28;20020;-70
2021/11/21 09:18:14;;;;;;;6.65;4.32;;;;;;;;;;5099196;28;20065;-70
2021/11/21 09:20:41;;;;;;;7.63;4.50;;;;;;;;;;5098632;28;20023;-70
2021/11/21 09:23:11;;;;;;;12.70;5.00;;;;;;;;;;5099090;28;20060;-70
2021/11/21 09:25:38;;;;;;;11.20;7.28;;;;;;;;;;5099154;28;20024;-70
2021/11/21 09:28:04;;;;;;;12.48;6.10;;;;;;;;;;5099022;28;20036;-70
2021/11/21 09:30:30;;;;;;;12.38;5.13;;;;;;;;;;5099072;28;20012;-70
2021/11/21 09:32:56;;;;;;;11.68;5.72;;;;;;;;;;5098795;28;20042;-70
2021/11/21 09:35:22;;;;;;;7.85;4.72;;;;;;;;;;5098925;28;20425;-70
2021/11/21 09:37:49;;;;;;;11.45;4.25;;;;;;;;;;5098316;28;20027;-70
2021/11/21 09:40:15;;;;;;;9.13;4.53;;;;;;;;;;5098824;28;20114;-70
2021/11/21 09:42:42;;;;;;;8.27;4.22;;;;;;;;;;5098757;28;20054;-70
2021/11/21 09:45:09;;;;;;;5.68;2.97;;;;;;;;;;5098803;28;20016;-70
2021/11/21 09:47:35;;;;;;;11.50;3.88;;;;;;;;;;5098572;28;20452;-71
2021/11/21 09:50:05;;;;;;;7.82;3.45;;;;;;;;;;5098618;28;20414;-70
2021/11/21 09:52:31;;;;;;;9.15;4.32;;;;;;;;;;5098616;28;20026;-71
2021/11/21 09:54:57;;;;;;;15.60;6.18;;;;;;;;;;5098728;28;20032;-70
2021/11/21 09:57:24;;;;;;;15.40;6.20;;;;;;;;;;5098417;28;20020;-70
2021/11/21 09:59:51;;;;;;;17.70;6.50;;;;;;;;;;5098378;28;20364;-70
2021/11/21 10:02:18;;;;;;;19.58;7.72;;;;;;;;;;5098433;28;20023;-71
2021/11/21 10:04:44;;;;;;;16.75;8.75;;;;;;;;;;5097780;28;20020;-71
2021/11/21 10:07:24;;;;;;;14.98;7.95;;;;;;;;;;5063304;28;20456;-70
2021/11/21 10:09:50;;;;;;;15.07;6.83;;;;;;;;;;5098302;28;20390;-70
2021/11/21 10:12:16;;;;;;;17.75;6.60;;;;;;;;;;5098150;28;20479;-70
2021/11/21 10:14:55;;;;;;;12.93;6.32;;;;;;;;;;5098050;28;20028;-71
2021/11/21 10:17:22;;;;;;;16.80;7.32;;;;;;;;;;5097558;28;20024;-70
2021/11/21 10:20:19;;;;;;;19.17;8.32;;;;;;;;;;5079425;28;20368;-70
2021/11/21 10:22:45;;;;;;;18.50;8.13;;;;;;;;;;5081806;28;20051;-70
2021/11/21 10:25:11;;;;;;;20.23;8.80;;;;;;;;;;5097904;28;20103;-70
2021/11/21 10:27:37;;;;;;;22.05;10.57;;;;;;;;;;5097446;28;20032;-70
2021/11/21 10:30:03;;;;;;;17.20;7.10;;;;;;;;;;5097550;28;20043;-71
2021/11/21 10:32:31;;;;;;;16.52;8.77;;;;;;;;;;5097840;28;20336;-70
2021/11/21 10:34:58;;;;;;;21.20;9.60;;;;;;;;;;5079815;28;20015;-70
2021/11/21 10:37:29;;;;;;;22.85;11.40;;;;;;;;;;5097801;28;20028;-70
2021/11/21 10:39:59;;;;;;;24.08;10.48;;;;;;;;;;5097730;28;20020;-70
2021/11/21 10:42:25;;;;;;;23.15;9.30;;;;;;;;;;5097366;28;20073;-70
2021/11/21 10:44:52;;;;;;;24.98;11.82;;;;;;;;;;5079594;28;20030;-70
2021/11/21 10:47:18;;;;;;;22.55;9.93;;;;;;;;;;5097598;28;20032;-70
2021/11/21 10:49:44;;;;;;;19.08;9.20;;;;;;;;;;5097190;28;20080;-69
2021/11/21 10:52:13;;;;;;;20.55;9.35;;;;;;;;;;5097476;28;20024;-70
2021/11/21 10:54:40;;;;;;;16.52;8.20;;;;;;;;;;5096897;28;20411;-70
2021/11/21 10:57:08;;;;;;;25.85;12.07;;;;;;;;;;5079529;28;20104;-70
2021/11/21 10:59:39;;;;;;;26.95;12.70;;;;;;;;;;5097452;28;20039;-70
2021/11/21 11:02:11;;;;;;;25.85;12.35;;;;;;;;;;5079267;28;20051;-70
2021/11/21 11:04:38;;;;;;;31.98;12.77;;;;;;;;;;5096938;28;20027;-70
2021/11/21 11:07:15;;;;;;;38.08;13.65;;;;;;;;;;5097223;28;20031;-70
2021/11/21 11:09:42;;;;;;;35.72;15.57;;;;;;;;;;5079361;28;20016;-70
2021/11/21 11:12:08;;;;;;;39.55;17.70;;;;;;;;;;5097495;28;20445;-71
2021/11/21 11:14:34;;;;;;;39.88;17.92;;;;;;;;;;5079241;28;20034;-70
2021/11/21 11:17:00;;;;;;;36.47;18.63;;;;;;;;;;5097198;28;20338;-70
2021/11/21 11:19:28;;;;;;;37.38;17.50;;;;;;;;;;5097165;28;20310;-70
2021/11/21 11:21:54;;;;;;;30.95;15.05;;;;;;;;;;5097123;28;20027;-70
2021/11/21 11:24:22;;;;;;;32.28;14.07;;;;;;;;;;5097146;28;20017;-71
2021/11/21 11:27:14;;;;;;;20.40;10.27;;;;;;;;;;5097050;28;20028;-71
2021/11/21 11:29:46;;;;;;;31.20;15.48;;;;;;;;;;5093172;28;20058;-70
2021/11/21 11:32:18;;;;;;;42.05;19.60;;;;;;;;;;5097114;28;20064;-70
2021/11/21 11:34:44;;;;;;;34.08;17.80;;;;;;;;;;5096815;28;20437;-70
2021/11/21 11:37:13;;;;;;;33.08;14.70;;;;;;;;;;5096937;28;20077;-70
2021/11/21 11:39:44;;;;;;;42.25;19.55;;;;;;;;;;5082109;28;20036;-70
2021/11/21 11:42:28;;;;;;;44.75;18.25;;;;;;;;;;5101038;28;20345;-70
2021/11/21 11:44:55;;;;;;;51.63;24.73;;;;;;;;;;5100987;28;20023;-70
2021/11/21 11:47:22;;;;;;;42.92;17.90;;;;;;;;;;5082536;28;20357;-71
2021/11/21 11:49:48;;;;;;;33.45;16.45;;;;;;;;;;5100891;28;20027;-70
2021/11/21 11:52:14;;;;;;;34.40;16.38;;;;;;;;;;5100350;28;20023;-71
2021/11/21 11:54:42;;;;;;;30.35;13.25;;;;;;;;;;5100654;28;20298;-71
2021/11/21 11:57:09;;;;;;;22.17;9.80;;;;;;;;;;5082792;28;20020;-70
2021/11/21 11:59:39;;;;;;;18.83;9.88;;;;;;;;;;5100246;28;20019;-71
2021/11/21 12:02:05;;;;;;;;;;;;;;;;;;5100874;28;20375;-70
2021/11/21 12:04:31;;;;;;;15.63;8.15;;;;;;;;;;5100136;28;19904;-71
2021/11/21 12:06:57;;;;;;;18.88;8.52;;;;;;;;;;5100210;28;20044;-70
2021/11/21 12:09:25;;;;;;;17.13;8.07;;;;;;;;;;5100467;28;20345;-71
2021/11/21 12:12:09;;;;;;;27.25;9.95;;;;;;;;;;5100140;28;20405;-70
2021/11/21 12:14:35;;;;;;;16.05;8.93;;;;;;;;;;5082449;28;20024;-70
2021/11/21 12:17:01;;;;;;;16.80;8.80;;;;;;;;;;5099685;28;20016;-70
2021/11/21 12:19:57;;;;;;;16.80;8.18;;;;;;;;;;5100388;28;20082;-71
2021/11/21 12:22:32;;;;;;;20.55;9.75;;;;;;;;;;5066068;28;20032;-70
2021/11/21 12:25:04;;;;;;;16.75;7.10;;;;;;;;;;5099825;28;20043;-71
2021/11/21 12:27:31;;;;;;;28.52;11.25;;;;;;;;;;5100143;28;20028;-70
2021/11/21 12:30:10;;;;;;;19.90;8.70;;;;;;;;;;5099956;28;20016;-71
2021/11/21 12:32:44;;;;;;;12.07;7.10;;;;;;;;;;5108598;28;20031;-71
2021/11/21 12:35:24;;;;;;;14.48;7.32;;;;;;;;;;5109566;28;20024;-70
2021/11/21 12:37:51;;;;;;;16.83;6.13;;;;;;;;;;5109406;28;20069;-71
2021/11/21 12:40:42;;;;;;;17.50;7.07;;;;;;;;;;5082890;28;20436;-71
2021/11/21 12:43:09;;;;;;;16.83;7.00;;;;;;;;;;5109397;28;20046;-70
2021/11/21 12:45:39;;;;;;;21.73;10.30;;;;;;;;;;5103421;28;20020;-70
2021/11/21 12:48:07;;;;;;;18.43;8.07;;;;;;;;;;5102210;28;20088;-70
2021/11/21 12:50:33;;;;;;;15.75;6.55;;;;;;;;;;5104018;28;20256;-70
2021/11/21 12:53:00;;;;;;;17.48;7.13;;;;;;;;;;5099305;28;20019;-71
2021/11/21 12:55:31;;;;;;;15.73;6.88;;;;;;;;;;5109038;28;20027;-70
2021/11/21 12:57:57;;;;;;;14.32;6.47;;;;;;;;;;5108919;28;20016;-70
2021/11/21 13:00:25;;;;;;;13.82;6.25;;;;;;;;;;5109190;28;20042;-70
2021/11/21 13:02:56;;;;;;;6.82;3.80;;;;;;;;;;5105065;28;20065;-70
2021/11/21 13:05:22;;;;;;;;;;;;;;;;;;5099909;28;20051;-70
2021/11/21 13:07:48;;;;;;;12.32;6.20;;;;;;;;;;5085073;28;19919;-70
2021/11/21 13:10:15;;;;;;;8.88;4.00;;;;;;;;;;5108114;28;20341;-70
2021/11/21 13:12:42;;;;;;;15.60;4.57;;;;;;;;;;5100439;28;20020;-70
2021/11/21 13:15:09;;;;;;;14.05;5.53;;;;;;;;;;5099270;28;20333;-70
2021/11/21 13:17:35;;;;;;;10.82;5.40;;;;;;;;;;5099266;28;20363;-70
2021/11/21 13:20:04;;;;;;;9.77;3.78;;;;;;;;;;5081270;28;20050;-70
2021/11/21 13:22:48;;;;;;;17.00;5.95;;;;;;;;;;5099239;28;20024;-71
2021/11/21 13:25:32;;;;;;;11.57;5.25;;;;;;;;;;5080578;28;20023;-70
2021/11/21 13:28:17;;;;;;;16.50;8.00;;;;;;;;;;5098794;28;20032;-70
2021/11/21 13:30:43;;;;;;;18.33;7.00;;;;;;;;;;5098981;28;20046;-70
2021/11/21 13:33:13;;;;;;;17.73;6.85;;;;;;;;;;5098997;28;20028;-70
2021/11/21 13:35:40;;;;;;;15.73;5.70;;;;;;;;;;5098391;28;20383;-71
2021/11/21 13:38:06;;;;;;;12.82;5.45;;;;;;;;;;5098857;28;20027;-70
2021/11/21 13:40:32;;;;;;;15.13;7.47;;;;;;;;;;5080789;28;20041;-71
2021/11/21 13:43:04;;;;;;;18.17;9.18;;;;;;;;;;5098895;28;20446;-70
2021/11/21 13:45:30;;;;;;;16.73;7.68;;;;;;;;;;5098705;28;20016;-70
2021/11/21 13:47:56;;;;;;;19.20;7.00;;;;;;;;;;5080310;28;20119;-71
2021/11/21 13:50:30;;;;;;;20.85;7.72;;;;;;;;;;5098659;28;20019;-70
2021/11/21 13:52:57;;;;;;;16.00;7.20;;;;;;;;;;5097981;28;20012;-70
2021/11/21 13:55:24;;;;;;;25.42;8.77;;;;;;;;;;5098559;28;20422;-70
2021/11/21 13:57:54;;;;;;;25.00;9.65;;;;;;;;;;5098089;28;20370;-69
2021/11/21 14:00:27;;;;;;;18.45;7.00;;;;;;;;;;5098261;28;20065;-70
2021/11/21 14:03:04;;;;;;;21.20;10.52;;;;;;;;;;5098008;28;20027;-70
2021/11/21 14:05:30;;;;;;;15.27;7.57;;;;;;;;;;5098254;28;20059;-71
2021/11/21 14:08:00;;;;;;;20.90;8.82;;;;;;;;;;5098217;28;20386;-71
2021/11/21 14:10:31;;;;;;;23.23;9.57;;;;;;;;;;5097688;28;20429;-71
2021/11/21 14:13:12;;;;;;;19.02;7.43;;;;;;;;;;5098228;28;20028;-70
2021/11/21 14:15:38;;;;;;;14.27;6.22;;;;;;;;;;5080107;28;20016;-70
2021/11/21 14:18:04;;;;;;;25.23;8.02;;;;;;;;;;5098129;28;20433;-70
2021/11/21 14:20:32;;;;;;;14.85;6.38;;;;;;;;;;5098075;28;20065;-71
2021/11/21 14:23:06;;;;;;;26.27;7.15;;;;;;;;;;5098064;28;20039;-71
2021/11/21 14:25:34;;;;;;;20.95;7.28;;;;;;;;;;5098011;28;20065;-71
2021/11/21 14:28:01;;;;;;;34.28;9.02;;;;;;;;;;5097898;28;20039;-70